sensor_id;sensor_type;location;lat;lon;timestamp;temperature;humidity
5578;DHT22;2811;51.900;10.734;2022-10-03T00:04:04;12.00;99.90
5578;DHT22;2811;51.900;10.734;2022-10-03T00:06:43;12.00;99.90
5578;DHT22;2811;51.900;10.734;2022-10-03T00:09:25;12.00;99.90
5578;DHT22;2811;51.900;10.734;2022-10-03T00:12:09;12.00;99.90
5578;DHT22;2811;51.900;10.734;2022-10-03T00:14:47;12.40;99.90
5578;DHT22;2811;51.900;10.734;2022-10-03T00:17:19;12.00;99.90
5578;DHT22;2811;51.900;10.734;2022-10-03T00:19:58;12.10;99.90
5578;DHT22;2811;51.900;10.734;2022-10-03T00:22:38;12.20;99.90
5578;DHT22;2811;51.900;10.734;2022-10-03T00:25:23;12.20;99.90
5578;DHT22;2811;51.900;10.734;2022-10-03T00:27:55;12.30;99.90
5578;DHT22;2811;51.900;10.734;2022-10-03T00:30:29;12.30;99.90
5578;DHT22;2811;51.900;10.734;2022-10-03T00:33:17;12.20;99.90
5578;DHT22;2811;51.900;10.734;2022-10-03T00:35:55;12.10;99.90
5578;DHT22;2811;51.900;10.734;2022-10-03T00:38:43;12.20;99.90
5578;DHT22;2811;51.900;10.734;2022-10-03T00:41:27;12.20;99.90
5578;DHT22;2811;51.900;10.734;2022-10-03T00:47:18;12.20;99.90
5578;DHT22;2811;51.900;10.734;2022-10-03T00:50:02;12.20;99.90
5578;DHT22;2811;51.900;10.734;2022-10-03T00:52:53;12.20;99.90
5578;DHT22;2811;51.900;10.734;2022-10-03T00:55:34;12.30;99.90
5578;DHT22;2811;51.900;10.734;2022-10-03T00:58:20;12.30;99.90
5578;DHT22;2811;51.900;10.734;2022-10-03T01:00:50;12.30;99.90
5578;DHT22;2811;51.900;10.734;2022-10-03T01:03:30;12.30;99.90
5578;DHT22;2811;51.900;10.734;2022-10-03T01:06:20;12.20;99.90
5578;DHT22;2811;51.900;10.734;2022-10-03T01:09:07;12.60;99.90
5578;DHT22;2811;51.900;10.734;2022-10-03T01:11:55;12.20;99.90
5578;DHT22;2811;51.900;10.734;2022-10-03T01:14:36;12.10;99.90
5578;DHT22;2811;51.900;10.734;2022-10-03T01:17:15;12.10;99.90
5578;DHT22;2811;51.900;10.734;2022-10-03T01:19:58;12.10;99.90
5578;DHT22;2811;51.900;10.734;2022-10-03T01:22:55;12.20;99.90
5578;DHT22;2811;51.900;10.734;2022-10-03T01:25:37;12.10;99.90
5578;DHT22;2811;51.900;10.734;2022-10-03T01:28:25;12.10;99.90
5578;DHT22;2811;51.900;10.734;2022-10-03T01:31:15;12.10;99.90
5578;DHT22;2811;51.900;10.734;2022-10-03T01:33:49;12.10;99.90
5578;DHT22;2811;51.900;10.734;2022-10-03T01:36:25;12.10;99.90
5578;DHT22;2811;51.900;10.734;2022-10-03T01:39:00;12.10;99.90
5578;DHT22;2811;51.900;10.734;2022-10-03T01:41:36;12.10;99.90
5578;DHT22;2811;51.900;10.734;2022-10-03T01:44:15;12.00;99.90
5578;DHT22;2811;51.900;10.734;2022-10-03T01:46:54;12.00;99.90
5578;DHT22;2811;51.900;10.734;2022-10-03T01:49:27;12.00;99.90
5578;DHT22;2811;51.900;10.734;2022-10-03T01:52:02;12.10;99.90
5578;DHT22;2811;51.900;10.734;2022-10-03T01:54:38;12.10;99.90
5578;DHT22;2811;51.900;10.734;2022-10-03T01:57:13;12.20;99.90
5578;DHT22;2811;51.900;10.734;2022-10-03T01:59:47;12.10;99.90
5578;DHT22;2811;51.900;10.734;2022-10-03T02:02:26;12.10;99.90
5578;DHT22;2811;51.900;10.734;2022-10-03T02:05:01;12.10;99.90
5578;DHT22;2811;51.900;10.734;2022-10-03T02:07:39;12.30;99.90
5578;DHT22;2811;51.900;10.734;2022-10-03T02:10:17;12.00;99.90
5578;DHT22;2811;51.900;10.734;2022-10-03T02:12:53;12.00;99.90
5578;DHT22;2811;51.900;10.734;2022-10-03T02:15:29;12.10;99.90
5578;DHT22;2811;51.900;10.734;2022-10-03T02:18:06;12.00;99.90
5578;DHT22;2811;51.900;10.734;2022-10-03T02:20:44;12.00;99.90
5578;DHT22;2811;51.900;10.734;2022-10-03T02:23:23;12.00;99.90
5578;DHT22;2811;51.900;10.734;2022-10-03T02:25:57;12.00;99.90
5578;DHT22;2811;51.900;10.734;2022-10-03T02:28:51;12.00;99.90
5578;DHT22;2811;51.900;10.734;2022-10-03T02:32:02;12.00;99.90
5578;DHT22;2811;51.900;10.734;2022-10-03T02:34:56;12.00;99.90
5578;DHT22;2811;51.900;10.734;2022-10-03T02:37:52;12.10;99.90
5578;DHT22;2811;51.900;10.734;2022-10-03T02:43:55;12.00;99.90
5578;DHT22;2811;51.900;10.734;2022-10-03T02:52:56;12.00;99.90
5578;DHT22;2811;51.900;10.734;2022-10-03T02:58:59;12.10;99.90
5578;DHT22;2811;51.900;10.734;2022-10-03T03:02:05;12.00;99.90
5578;DHT22;2811;51.900;10.734;2022-10-03T03:05:18;12.10;99.90
5578;DHT22;2811;51.900;10.734;2022-10-03T03:08:16;11.90;99.90
5578;DHT22;2811;51.900;10.734;2022-10-03T03:11:15;11.90;99.90
5578;DHT22;2811;51.900;10.734;2022-10-03T03:14:22;11.90;99.90
5578;DHT22;2811;51.900;10.734;2022-10-03T03:17:00;11.90;99.90
5578;DHT22;2811;51.900;10.734;2022-10-03T03:22:40;11.90;99.90
5578;DHT22;2811;51.900;10.734;2022-10-03T03:25:22;11.90;99.90
5578;DHT22;2811;51.900;10.734;2022-10-03T03:28:02;11.90;99.90
5578;DHT22;2811;51.900;10.734;2022-10-03T03:30:42;12.10;99.90
5578;DHT22;2811;51.900;10.734;2022-10-03T03:33:15;11.90;99.90
5578;DHT22;2811;51.900;10.734;2022-10-03T03:35:57;11.90;99.90
5578;DHT22;2811;51.900;10.734;2022-10-03T03:38:34;11.90;99.90
5578;DHT22;2811;51.900;10.734;2022-10-03T03:41:16;11.90;99.90
5578;DHT22;2811;51.900;10.734;2022-10-03T03:47:07;11.90;99.90
5578;DHT22;2811;51.900;10.734;2022-10-03T03:49:50;11.80;99.90
5578;DHT22;2811;51.900;10.734;2022-10-03T03:52:35;11.80;99.90
5578;DHT22;2811;51.900;10.734;2022-10-03T03:55:15;11.80;99.90
5578;DHT22;2811;51.900;10.734;2022-10-03T03:58:03;11.80;99.90
5578;DHT22;2811;51.900;10.734;2022-10-03T04:00:44;11.80;99.90
5578;DHT22;2811;51.900;10.734;2022-10-03T04:03:25;11.90;99.90
5578;DHT22;2811;51.900;10.734;2022-10-03T04:06:06;11.90;99.90
5578;DHT22;2811;51.900;10.734;2022-10-03T04:08:46;11.90;99.90
5578;DHT22;2811;51.900;10.734;2022-10-03T04:11:24;12.00;99.90
5578;DHT22;2811;51.900;10.734;2022-10-03T04:14:06;11.90;99.90
5578;DHT22;2811;51.900;10.734;2022-10-03T04:16:43;11.90;99.90
5578;DHT22;2811;51.900;10.734;2022-10-03T04:19:41;11.90;99.90
5578;DHT22;2811;51.900;10.734;2022-10-03T04:22:21;11.90;99.90
5578;DHT22;2811;51.900;10.734;2022-10-03T04:25:22;11.90;99.90
5578;DHT22;2811;51.900;10.734;2022-10-03T04:28:12;11.90;99.90
5578;DHT22;2811;51.900;10.734;2022-10-03T04:30:53;11.90;99.90
5578;DHT22;2811;51.900;10.734;2022-10-03T04:33:32;11.90;99.90
5578;DHT22;2811;51.900;10.734;2022-10-03T04:36:30;11.90;99.90
5578;DHT22;2811;51.900;10.734;2022-10-03T04:39:08;11.90;99.90
5578;DHT22;2811;51.900;10.734;2022-10-03T04:41:41;12.00;99.90
5578;DHT22;2811;51.900;10.734;2022-10-03T04:44:19;11.90;99.90
5578;DHT22;2811;51.900;10.734;2022-10-03T04:46:55;11.90;99.90
5578;DHT22;2811;51.900;10.734;2022-10-03T04:49:33;12.30;99.90
5578;DHT22;2811;51.900;10.734;2022-10-03T04:52:04;12.00;99.90
5578;DHT22;2811;51.900;10.734;2022-10-03T04:54:45;12.00;99.90
5578;DHT22;2811;51.900;10.734;2022-10-03T04:57:22;11.90;99.90
5578;DHT22;2811;51.900;10.734;2022-10-03T04:59:58;12.10;99.90
5578;DHT22;2811;51.900;10.734;2022-10-03T05:02:33;11.80;99.90
5578;DHT22;2811;51.900;10.734;2022-10-03T05:05:23;11.80;99.90
5578;DHT22;2811;51.900;10.734;2022-10-03T05:07:57;11.70;99.90
5578;DHT22;2811;51.900;10.734;2022-10-03T05:10:39;11.70;99.90
5578;DHT22;2811;51.900;10.734;2022-10-03T05:13:14;11.80;99.90
5578;DHT22;2811;51.900;10.734;2022-10-03T05:15:54;11.80;99.90
5578;DHT22;2811;51.900;10.734;2022-10-03T05:18:28;11.80;99.90
5578;DHT22;2811;51.900;10.734;2022-10-03T05:21:03;11.90;99.90
5578;DHT22;2811;51.900;10.734;2022-10-03T05:23:42;11.80;99.90
5578;DHT22;2811;51.900;10.734;2022-10-03T05:26:17;11.80;99.90
5578;DHT22;2811;51.900;10.734;2022-10-03T05:28:51;11.80;99.90
5578;DHT22;2811;51.900;10.734;2022-10-03T05:31:30;11.90;99.90
5578;DHT22;2811;51.900;10.734;2022-10-03T05:34:08;11.90;99.90
5578;DHT22;2811;51.900;10.734;2022-10-03T05:36:50;11.80;99.90
5578;DHT22;2811;51.900;10.734;2022-10-03T05:39:26;11.90;99.90
5578;DHT22;2811;51.900;10.734;2022-10-03T05:42:02;11.80;99.90
5578;DHT22;2811;51.900;10.734;2022-10-03T05:44:39;11.80;99.90
5578;DHT22;2811;51.900;10.734;2022-10-03T05:47:12;11.80;99.90
5578;DHT22;2811;51.900;10.734;2022-10-03T05:50:18;11.80;99.90
5578;DHT22;2811;51.900;10.734;2022-10-03T05:53:21;11.90;99.90
5578;DHT22;2811;51.900;10.734;2022-10-03T05:56:00;11.90;99.90
5578;DHT22;2811;51.900;10.734;2022-10-03T06:01:54;11.90;99.90
5578;DHT22;2811;51.900;10.734;2022-10-03T06:04:44;11.90;99.90
5578;DHT22;2811;51.900;10.734;2022-10-03T06:07:22;12.00;99.90
5578;DHT22;2811;51.900;10.734;2022-10-03T06:13:04;12.00;99.90
5578;DHT22;2811;51.900;10.734;2022-10-03T06:15:44;12.00;99.90
5578;DHT22;2811;51.900;10.734;2022-10-03T06:18:58;12.10;99.90
5578;DHT22;2811;51.900;10.734;2022-10-03T06:25:24;12.10;99.90
5578;DHT22;2811;51.900;10.734;2022-10-03T06:28:32;12.20;99.90
5578;DHT22;2811;51.900;10.734;2022-10-03T06:31:40;12.30;99.90
5578;DHT22;2811;51.900;10.734;2022-10-03T06:34:39;12.30;99.90
5578;DHT22;2811;51.900;10.734;2022-10-03T06:40:57;12.30;99.90
5578;DHT22;2811;51.900;10.734;2022-10-03T06:43:44;12.30;99.90
5578;DHT22;2811;51.900;10.734;2022-10-03T06:55:49;12.30;99.90
5578;DHT22;2811;51.900;10.734;2022-10-03T07:07:55;12.40;99.90
5578;DHT22;2811;51.900;10.734;2022-10-03T07:10:44;12.60;99.90
5578;DHT22;2811;51.900;10.734;2022-10-03T07:16:50;12.90;99.90
5578;DHT22;2811;51.900;10.734;2022-10-03T07:19:40;13.10;99.90
5578;DHT22;2811;51.900;10.734;2022-10-03T07:25:28;13.10;99.90
5578;DHT22;2811;51.900;10.734;2022-10-03T07:31:03;13.20;99.90
5578;DHT22;2811;51.900;10.734;2022-10-03T07:34:05;13.30;99.90
5578;DHT22;2811;51.900;10.734;2022-10-03T07:37:08;13.40;99.90
5578;DHT22;2811;51.900;10.734;2022-10-03T07:40:13;13.60;99.90
5578;DHT22;2811;51.900;10.734;2022-10-03T07:43:17;13.80;99.90
5578;DHT22;2811;51.900;10.734;2022-10-03T07:51:59;14.50;99.90
5578;DHT22;2811;51.900;10.734;2022-10-03T07:54:59;14.10;99.90
5578;DHT22;2811;51.900;10.734;2022-10-03T07:57:55;14.30;99.90
5578;DHT22;2811;51.900;10.734;2022-10-03T08:00:35;14.60;99.90
5578;DHT22;2811;51.900;10.734;2022-10-03T08:06:18;14.20;99.90
5578;DHT22;2811;51.900;10.734;2022-10-03T08:09:12;14.30;99.90
5578;DHT22;2811;51.900;10.734;2022-10-03T08:14:57;14.40;99.90
5578;DHT22;2811;51.900;10.734;2022-10-03T08:17:54;14.10;99.90
5578;DHT22;2811;51.900;10.734;2022-10-03T08:20:43;13.90;99.90
5578;DHT22;2811;51.900;10.734;2022-10-03T08:26:14;13.90;99.90
5578;DHT22;2811;51.900;10.734;2022-10-03T08:28:54;14.20;99.90
5578;DHT22;2811;51.900;10.734;2022-10-03T08:37:47;14.90;99.90
5578;DHT22;2811;51.900;10.734;2022-10-03T08:40:54;15.00;99.90
5578;DHT22;2811;51.900;10.734;2022-10-03T08:50:13;15.10;99.90
5578;DHT22;2811;51.900;10.734;2022-10-03T08:52:58;14.80;99.90
5578;DHT22;2811;51.900;10.734;2022-10-03T08:55:44;14.70;99.90
5578;DHT22;2811;51.900;10.734;2022-10-03T08:58:44;14.80;99.90
5578;DHT22;2811;51.900;10.734;2022-10-03T09:01:27;15.00;99.90
5578;DHT22;2811;51.900;10.734;2022-10-03T09:04:26;15.00;99.90
5578;DHT22;2811;51.900;10.734;2022-10-03T09:07:30;15.10;99.90
5578;DHT22;2811;51.900;10.734;2022-10-03T09:10:33;15.00;99.90
5578;DHT22;2811;51.900;10.734;2022-10-03T09:16:31;14.80;99.90
5578;DHT22;2811;51.900;10.734;2022-10-03T09:19:15;14.70;99.90
5578;DHT22;2811;51.900;10.734;2022-10-03T09:22:08;14.80;99.90
5578;DHT22;2811;51.900;10.734;2022-10-03T09:25:02;14.90;99.90
5578;DHT22;2811;51.900;10.734;2022-10-03T09:30:51;15.60;99.90
5578;DHT22;2811;51.900;10.734;2022-10-03T09:42:57;15.50;99.90
5578;DHT22;2811;51.900;10.734;2022-10-03T09:46:02;15.30;99.90
5578;DHT22;2811;51.900;10.734;2022-10-03T09:48:47;15.30;99.90
5578;DHT22;2811;51.900;10.734;2022-10-03T09:51:32;15.80;99.90
5578;DHT22;2811;51.900;10.734;2022-10-03T09:54:33;15.70;99.90
5578;DHT22;2811;51.900;10.734;2022-10-03T09:57:34;15.90;99.90
5578;DHT22;2811;51.900;10.734;2022-10-03T10:00:18;15.80;99.90
5578;DHT22;2811;51.900;10.734;2022-10-03T10:03:21;15.70;99.90
5578;DHT22;2811;51.900;10.734;2022-10-03T10:06:31;15.60;99.90
5578;DHT22;2811;51.900;10.734;2022-10-03T10:09:31;15.60;99.90
5578;DHT22;2811;51.900;10.734;2022-10-03T10:15:58;15.60;99.90
5578;DHT22;2811;51.900;10.734;2022-10-03T10:19:00;15.60;99.90
5578;DHT22;2811;51.900;10.734;2022-10-03T10:21:51;15.40;99.90
5578;DHT22;2811;51.900;10.734;2022-10-03T10:30:53;15.70;99.90
5578;DHT22;2811;51.900;10.734;2022-10-03T10:37:24;15.50;99.90
5578;DHT22;2811;51.900;10.734;2022-10-03T10:40:29;15.40;99.90
5578;DHT22;2811;51.900;10.734;2022-10-03T10:49:43;15.00;99.90
5578;DHT22;2811;51.900;10.734;2022-10-03T10:55:56;15.20;99.90
5578;DHT22;2811;51.900;10.734;2022-10-03T10:59:13;15.10;99.90
5578;DHT22;2811;51.900;10.734;2022-10-03T11:02:33;15.70;99.90
5578;DHT22;2811;51.900;10.734;2022-10-03T11:05:38;16.10;99.90
5578;DHT22;2811;51.900;10.734;2022-10-03T11:08:44;16.10;99.90
5578;DHT22;2811;51.900;10.734;2022-10-03T11:17:32;16.30;99.90
5578;DHT22;2811;51.900;10.734;2022-10-03T11:36:01;17.00;99.90
5578;DHT22;2811;51.900;10.734;2022-10-03T11:38:34;16.60;99.90
5578;DHT22;2811;51.900;10.734;2022-10-03T11:41:12;16.40;99.90
5578;DHT22;2811;51.900;10.734;2022-10-03T11:44:03;16.20;99.90
5578;DHT22;2811;51.900;10.734;2022-10-03T11:46:48;16.30;99.90
5578;DHT22;2811;51.900;10.734;2022-10-03T11:52:27;15.80;99.90
5578;DHT22;2811;51.900;10.734;2022-10-03T11:55:07;15.40;99.90
5578;DHT22;2811;51.900;10.734;2022-10-03T11:57:43;15.20;99.90
5578;DHT22;2811;51.900;10.734;2022-10-03T12:00:14;15.60;99.90
5578;DHT22;2811;51.900;10.734;2022-10-03T12:03:07;15.20;99.90
5578;DHT22;2811;51.900;10.734;2022-10-03T12:05:46;15.20;99.90
5578;DHT22;2811;51.900;10.734;2022-10-03T12:08:23;15.40;99.90
5578;DHT22;2811;51.900;10.734;2022-10-03T12:11:15;14.90;99.90
5578;DHT22;2811;51.900;10.734;2022-10-03T12:14:05;14.80;99.90
5578;DHT22;2811;51.900;10.734;2022-10-03T12:16:54;14.60;99.90
5578;DHT22;2811;51.900;10.734;2022-10-03T12:19:28;14.50;99.90
5578;DHT22;2811;51.900;10.734;2022-10-03T12:22:01;14.30;99.90
5578;DHT22;2811;51.900;10.734;2022-10-03T12:24:35;14.30;99.90
5578;DHT22;2811;51.900;10.734;2022-10-03T12:27:14;14.50;99.90
5578;DHT22;2811;51.900;10.734;2022-10-03T12:29:53;14.80;99.90
5578;DHT22;2811;51.900;10.734;2022-10-03T12:32:30;15.30;99.90
5578;DHT22;2811;51.900;10.734;2022-10-03T12:35:09;15.40;99.90
5578;DHT22;2811;51.900;10.734;2022-10-03T12:37:44;15.80;99.90
5578;DHT22;2811;51.900;10.734;2022-10-03T12:40:20;16.20;99.90
5578;DHT22;2811;51.900;10.734;2022-10-03T12:43:00;16.50;99.90
5578;DHT22;2811;51.900;10.734;2022-10-03T12:45:33;16.70;99.90
5578;DHT22;2811;51.900;10.734;2022-10-03T12:48:21;17.00;99.90
5578;DHT22;2811;51.900;10.734;2022-10-03T12:50:56;17.40;99.90
5578;DHT22;2811;51.900;10.734;2022-10-03T12:53:33;17.60;99.90
5578;DHT22;2811;51.900;10.734;2022-10-03T12:56:12;17.60;99.90
5578;DHT22;2811;51.900;10.734;2022-10-03T12:59:01;17.60;99.90
5578;DHT22;2811;51.900;10.734;2022-10-03T13:04:33;17.50;99.90
5578;DHT22;2811;51.900;10.734;2022-10-03T13:07:21;17.60;99.90
5578;DHT22;2811;51.900;10.734;2022-10-03T13:10:03;17.70;99.90
5578;DHT22;2811;51.900;10.734;2022-10-03T13:12:40;17.80;99.90
5578;DHT22;2811;51.900;10.734;2022-10-03T13:15:35;18.10;99.90
5578;DHT22;2811;51.900;10.734;2022-10-03T13:18:15;18.60;99.90
5578;DHT22;2811;51.900;10.734;2022-10-03T13:20:51;17.90;99.90
5578;DHT22;2811;51.900;10.734;2022-10-03T13:23:25;17.80;99.90
5578;DHT22;2811;51.900;10.734;2022-10-03T13:26:05;17.60;99.90
5578;DHT22;2811;51.900;10.734;2022-10-03T13:28:44;17.40;99.90
5578;DHT22;2811;51.900;10.734;2022-10-03T13:31:17;17.10;99.90
5578;DHT22;2811;51.900;10.734;2022-10-03T13:33:51;16.90;99.90
5578;DHT22;2811;51.900;10.734;2022-10-03T13:36:23;16.90;99.90
5578;DHT22;2811;51.900;10.734;2022-10-03T13:39:02;16.90;99.90
5578;DHT22;2811;51.900;10.734;2022-10-03T13:41:41;16.90;99.90
5578;DHT22;2811;51.900;10.734;2022-10-03T13:44:16;17.10;99.90
5578;DHT22;2811;51.900;10.734;2022-10-03T13:46:49;17.10;99.90
5578;DHT22;2811;51.900;10.734;2022-10-03T13:49:24;16.90;99.90
5578;DHT22;2811;51.900;10.734;2022-10-03T13:51:58;16.80;99.90
5578;DHT22;2811;51.900;10.734;2022-10-03T13:54:57;16.80;99.90
5578;DHT22;2811;51.900;10.734;2022-10-03T13:57:30;16.90;99.90
5578;DHT22;2811;51.900;10.734;2022-10-03T14:00:03;16.90;99.90
5578;DHT22;2811;51.900;10.734;2022-10-03T14:02:41;17.00;99.90
5578;DHT22;2811;51.900;10.734;2022-10-03T14:08:11;17.50;99.90
5578;DHT22;2811;51.900;10.734;2022-10-03T14:11:01;17.00;99.90
5578;DHT22;2811;51.900;10.734;2022-10-03T14:13:43;17.00;99.90
5578;DHT22;2811;51.900;10.734;2022-10-03T14:16:18;17.30;99.90
5578;DHT22;2811;51.900;10.734;2022-10-03T14:18:52;16.90;99.90
5578;DHT22;2811;51.900;10.734;2022-10-03T14:21:42;17.00;99.90
5578;DHT22;2811;51.900;10.734;2022-10-03T14:24:37;17.20;99.90
5578;DHT22;2811;51.900;10.734;2022-10-03T14:27:33;16.90;99.90
5578;DHT22;2811;51.900;10.734;2022-10-03T14:30:05;16.80;99.90
5578;DHT22;2811;51.900;10.734;2022-10-03T14:32:42;16.60;99.90
5578;DHT22;2811;51.900;10.734;2022-10-03T14:35:18;16.60;99.90
5578;DHT22;2811;51.900;10.734;2022-10-03T14:37:51;16.80;99.90
5578;DHT22;2811;51.900;10.734;2022-10-03T14:40:27;16.80;99.90
5578;DHT22;2811;51.900;10.734;2022-10-03T14:43:05;16.90;99.90
5578;DHT22;2811;51.900;10.734;2022-10-03T14:45:41;17.00;99.90
5578;DHT22;2811;51.900;10.734;2022-10-03T14:48:15;17.40;99.90
5578;DHT22;2811;51.900;10.734;2022-10-03T14:50:44;17.10;99.90
5578;DHT22;2811;51.900;10.734;2022-10-03T14:53:16;16.90;99.90
5578;DHT22;2811;51.900;10.734;2022-10-03T14:55:54;16.60;99.90
5578;DHT22;2811;51.900;10.734;2022-10-03T14:58:24;16.50;99.90
5578;DHT22;2811;51.900;10.734;2022-10-03T15:01:01;16.50;99.90
5578;DHT22;2811;51.900;10.734;2022-10-03T15:03:33;16.50;99.90
5578;DHT22;2811;51.900;10.734;2022-10-03T15:09:01;16.10;99.90
5578;DHT22;2811;51.900;10.734;2022-10-03T15:11:31;16.10;99.90
5578;DHT22;2811;51.900;10.734;2022-10-03T15:14:01;16.10;99.90
5578;DHT22;2811;51.900;10.734;2022-10-03T15:16:31;16.10;99.90
5578;DHT22;2811;51.900;10.734;2022-10-03T15:19:03;16.00;99.90
5578;DHT22;2811;51.900;10.734;2022-10-03T15:21:31;16.00;99.90
5578;DHT22;2811;51.900;10.734;2022-10-03T15:24:01;16.30;99.90
5578;DHT22;2811;51.900;10.734;2022-10-03T15:26:32;16.10;99.90
5578;DHT22;2811;51.900;10.734;2022-10-03T15:29:02;16.20;99.90
5578;DHT22;2811;51.900;10.734;2022-10-03T15:31:33;16.20;99.90
5578;DHT22;2811;51.900;10.734;2022-10-03T15:34:04;16.20;99.90
5578;DHT22;2811;51.900;10.734;2022-10-03T15:36:35;16.20;99.90
5578;DHT22;2811;51.900;10.734;2022-10-03T15:39:05;16.10;99.90
5578;DHT22;2811;51.900;10.734;2022-10-03T15:41:35;16.00;99.90
5578;DHT22;2811;51.900;10.734;2022-10-03T15:44:09;16.10;99.90
5578;DHT22;2811;51.900;10.734;2022-10-03T15:46:42;16.10;99.90
5578;DHT22;2811;51.900;10.734;2022-10-03T15:49:18;16.00;99.90
5578;DHT22;2811;51.900;10.734;2022-10-03T15:51:46;16.00;99.90
5578;DHT22;2811;51.900;10.734;2022-10-03T15:54:19;16.40;99.90
5578;DHT22;2811;51.900;10.734;2022-10-03T15:56:50;16.00;99.90
5578;DHT22;2811;51.900;10.734;2022-10-03T15:59:21;16.00;99.90
5578;DHT22;2811;51.900;10.734;2022-10-03T16:01:53;15.90;99.90
5578;DHT22;2811;51.900;10.734;2022-10-03T16:04:24;15.70;99.90
5578;DHT22;2811;51.900;10.734;2022-10-03T16:06:58;15.70;99.90
5578;DHT22;2811;51.900;10.734;2022-10-03T16:09:31;15.70;99.90
5578;DHT22;2811;51.900;10.734;2022-10-03T16:14:57;15.50;99.90
5578;DHT22;2811;51.900;10.734;2022-10-03T16:17:30;15.50;99.90
5578;DHT22;2811;51.900;10.734;2022-10-03T16:20:08;15.50;99.90
5578;DHT22;2811;51.900;10.734;2022-10-03T16:22:41;15.50;99.90
5578;DHT22;2811;51.900;10.734;2022-10-03T16:25:13;15.50;99.90
5578;DHT22;2811;51.900;10.734;2022-10-03T16:27:49;15.60;99.90
5578;DHT22;2811;51.900;10.734;2022-10-03T16:30:20;15.30;99.90
5578;DHT22;2811;51.900;10.734;2022-10-03T16:32:52;15.30;99.90
5578;DHT22;2811;51.900;10.734;2022-10-03T16:35:34;15.30;99.90
5578;DHT22;2811;51.900;10.734;2022-10-03T16:38:05;15.30;99.90
5578;DHT22;2811;51.900;10.734;2022-10-03T16:40:34;15.20;99.90
5578;DHT22;2811;51.900;10.734;2022-10-03T16:43:03;15.20;99.90
5578;DHT22;2811;51.900;10.734;2022-10-03T16:45:38;15.20;99.90
5578;DHT22;2811;51.900;10.734;2022-10-03T16:48:11;15.20;99.90
5578;DHT22;2811;51.900;10.734;2022-10-03T16:50:59;15.10;99.90
5578;DHT22;2811;51.900;10.734;2022-10-03T16:53:27;15.10;99.90
5578;DHT22;2811;51.900;10.734;2022-10-03T16:55:56;15.20;99.90
5578;DHT22;2811;51.900;10.734;2022-10-03T16:58:27;15.10;99.90
5578;DHT22;2811;51.900;10.734;2022-10-03T17:00:58;15.10;99.90
5578;DHT22;2811;51.900;10.734;2022-10-03T17:03:29;15.10;99.90
5578;DHT22;2811;51.900;10.734;2022-10-03T17:05:59;15.00;99.90
5578;DHT22;2811;51.900;10.734;2022-10-03T17:08:29;15.00;99.90
5578;DHT22;2811;51.900;10.734;2022-10-03T17:10:58;15.00;99.90
5578;DHT22;2811;51.900;10.734;2022-10-03T17:13:36;15.10;99.90
5578;DHT22;2811;51.900;10.734;2022-10-03T17:16:10;15.10;99.90
5578;DHT22;2811;51.900;10.734;2022-10-03T17:18:40;15.00;99.90
5578;DHT22;2811;51.900;10.734;2022-10-03T17:21:18;14.90;99.90
5578;DHT22;2811;51.900;10.734;2022-10-03T17:23:52;14.90;99.90
5578;DHT22;2811;51.900;10.734;2022-10-03T17:26:26;14.90;99.90
5578;DHT22;2811;51.900;10.734;2022-10-03T17:29:00;14.90;99.90
5578;DHT22;2811;51.900;10.734;2022-10-03T17:31:31;14.90;99.90
5578;DHT22;2811;51.900;10.734;2022-10-03T17:34:07;14.90;99.90
5578;DHT22;2811;51.900;10.734;2022-10-03T17:39:36;14.90;99.90
5578;DHT22;2811;51.900;10.734;2022-10-03T17:42:10;14.90;99.90
5578;DHT22;2811;51.900;10.734;2022-10-03T17:44:53;14.90;99.90
5578;DHT22;2811;51.900;10.734;2022-10-03T17:47:22;14.80;99.90
5578;DHT22;2811;51.900;10.734;2022-10-03T17:49:56;14.50;99.90
5578;DHT22;2811;51.900;10.734;2022-10-03T17:52:25;14.80;99.90
5578;DHT22;2811;51.900;10.734;2022-10-03T17:54:55;14.80;99.90
5578;DHT22;2811;51.900;10.734;2022-10-03T17:57:25;14.80;99.90
5578;DHT22;2811;51.900;10.734;2022-10-03T17:59:56;14.70;99.90
5578;DHT22;2811;51.900;10.734;2022-10-03T18:02:33;14.80;99.90
5578;DHT22;2811;51.900;10.734;2022-10-03T18:05:07;14.70;99.90
5578;DHT22;2811;51.900;10.734;2022-10-03T18:07:39;14.60;99.90
5578;DHT22;2811;51.900;10.734;2022-10-03T18:10:18;14.60;99.90
5578;DHT22;2811;51.900;10.734;2022-10-03T18:12:46;14.60;99.90
5578;DHT22;2811;51.900;10.734;2022-10-03T18:15:38;14.60;99.90
5578;DHT22;2811;51.900;10.734;2022-10-03T18:18:55;14.60;99.90
5578;DHT22;2811;51.900;10.734;2022-10-03T18:21:34;14.60;99.90
5578;DHT22;2811;51.900;10.734;2022-10-03T18:24:14;14.50;99.90
5578;DHT22;2811;51.900;10.734;2022-10-03T18:26:46;14.50;99.90
5578;DHT22;2811;51.900;10.734;2022-10-03T18:29:22;14.50;99.90
5578;DHT22;2811;51.900;10.734;2022-10-03T18:31:54;14.50;99.90
5578;DHT22;2811;51.900;10.734;2022-10-03T18:34:27;14.60;99.90
5578;DHT22;2811;51.900;10.734;2022-10-03T18:37:00;14.60;99.90
5578;DHT22;2811;51.900;10.734;2022-10-03T18:39:32;14.60;99.90
5578;DHT22;2811;51.900;10.734;2022-10-03T18:42:00;14.50;99.90
5578;DHT22;2811;51.900;10.734;2022-10-03T18:44:29;14.50;99.90
5578;DHT22;2811;51.900;10.734;2022-10-03T18:47:06;14.50;99.90
5578;DHT22;2811;51.900;10.734;2022-10-03T18:49:38;14.50;99.90
5578;DHT22;2811;51.900;10.734;2022-10-03T18:52:12;14.40;99.90
5578;DHT22;2811;51.900;10.734;2022-10-03T18:54:51;14.40;99.90
5578;DHT22;2811;51.900;10.734;2022-10-03T18:57:24;14.40;99.90
5578;DHT22;2811;51.900;10.734;2022-10-03T18:59:55;14.50;99.90
5578;DHT22;2811;51.900;10.734;2022-10-03T19:02:31;14.50;99.90
5578;DHT22;2811;51.900;10.734;2022-10-03T19:05:06;14.50;99.90
5578;DHT22;2811;51.900;10.734;2022-10-03T19:07:41;14.50;99.90
5578;DHT22;2811;51.900;10.734;2022-10-03T19:10:23;14.50;99.90
5578;DHT22;2811;51.900;10.734;2022-10-03T19:12:57;14.50;99.90
5578;DHT22;2811;51.900;10.734;2022-10-03T19:15:35;14.50;99.90
5578;DHT22;2811;51.900;10.734;2022-10-03T19:18:16;14.50;99.90
5578;DHT22;2811;51.900;10.734;2022-10-03T19:20:48;14.50;99.90
5578;DHT22;2811;51.900;10.734;2022-10-03T19:23:20;14.50;99.90
5578;DHT22;2811;51.900;10.734;2022-10-03T19:25:54;14.50;99.90
5578;DHT22;2811;51.900;10.734;2022-10-03T19:28:26;14.40;99.90
5578;DHT22;2811;51.900;10.734;2022-10-03T19:31:03;14.40;99.90
5578;DHT22;2811;51.900;10.734;2022-10-03T19:33:35;14.40;99.90
5578;DHT22;2811;51.900;10.734;2022-10-03T19:36:04;14.40;99.90
5578;DHT22;2811;51.900;10.734;2022-10-03T19:38:34;14.40;99.90
5578;DHT22;2811;51.900;10.734;2022-10-03T19:41:11;14.40;99.90
5578;DHT22;2811;51.900;10.734;2022-10-03T19:43:42;14.30;99.90
5578;DHT22;2811;51.900;10.734;2022-10-03T19:46:28;14.30;99.90
5578;DHT22;2811;51.900;10.734;2022-10-03T19:49:20;14.30;99.90
5578;DHT22;2811;51.900;10.734;2022-10-03T19:51:49;14.20;99.90
5578;DHT22;2811;51.900;10.734;2022-10-03T19:54:28;14.20;99.90
5578;DHT22;2811;51.900;10.734;2022-10-03T19:56:58;14.30;99.90
5578;DHT22;2811;51.900;10.734;2022-10-03T19:59:43;14.30;99.90
5578;DHT22;2811;51.900;10.734;2022-10-03T20:02:11;14.20;99.90
5578;DHT22;2811;51.900;10.734;2022-10-03T20:04:38;14.10;99.90